Time;durP1;ratioP1;P1;durP2;ratioP2;P2;SDS_P1;SDS_P2;PMS_P1;PMS_P2;Temp;Humidity;BMP_temperature;BMP_pressure;BME280_temperature;BME280_humidity;BME280_pressure;Samples;Min_cycle;Max_cycle;Signal;HPM_P1;HPM_P2
2023/07/03 00:04:11;;;;;;;;;;;;;;;17.22;64.27;100867.63;10581907;28;19928;-68
2023/07/03 00:09:14;;;;;;;;;;;;;;;17.24;65.08;100864.84;10581691;28;20271;-68
2023/07/03 00:14:16;;;;;;;;;;;;;;;17.21;64.13;100860.63;10581631;28;19924;-68
2023/07/03 00:19:23;;;;;;;;;;;;;;;17.08;65.43;100858.22;10563712;28;19930;-68
2023/07/03 00:24:26;;;;;;;;;;;;;;;17.04;63.85;100853.28;10564246;28;20270;-69
2023/07/03 00:29:29;;;;;;;;;;;;;;;16.70;65.26;100851.63;10581344;28;19924;-68
2023/07/03 00:34:32;;;;;;;;;;;;;;;16.96;64.88;100855.75;10563454;28;19934;-68
2023/07/03 00:39:34;;;;;;;;;;;;;;;16.79;64.41;100857.13;10563160;28;19924;-68
2023/07/03 00:44:36;;;;;;;;;;;;;;;16.71;65.20;100860.41;10562854;28;20094;-68
2023/07/03 00:49:38;;;;;;;;;;;;;;;16.94;65.28;100860.31;10581088;28;19924;-67
2023/07/03 00:54:41;;;;;;;;;;;;;;;16.73;65.80;100855.81;10581102;28;19930;-68
2023/07/03 00:59:43;;;;;;;;;;;;;;;16.65;66.04;100845.03;10580825;28;19923;-68
2023/07/03 01:04:51;;;;;;;;;;;;;;;16.86;64.98;100840.66;10568992;28;19924;-67
2023/07/03 01:09:55;;;;;;;;;;;;;;;16.70;65.83;100841.03;10587989;28;19928;-67
2023/07/03 01:14:59;;;;;;;;;;;;;;;16.53;65.32;100839.78;10569949;28;19924;-68
2023/07/03 01:20:02;;;;;;;;;;;;;;;16.55;66.19;100838.84;10587622;28;20002;-67
2023/07/03 01:25:08;;;;;;;;;;;;;;;16.26;66.96;100834.13;10569262;28;19967;-68
2023/07/03 01:30:12;;;;;;;;;;;;;;;16.43;65.84;100833.59;10587420;28;19924;-68
2023/07/03 01:35:15;;;;;;;;;;;;;;;16.42;67.08;100845.09;10569050;28;19982;-68
2023/07/03 01:40:18;;;;;;;;;;;;;;;16.48;66.93;100841.97;10587079;28;19924;-68
2023/07/03 01:45:21;;;;;;;;;;;;;;;16.43;66.78;100838.03;10586457;28;19930;-68
2023/07/03 01:50:24;;;;;;;;;;;;;;;16.58;66.07;100830.66;10586700;28;19930;-67
2023/07/03 01:55:33;;;;;;;;;;;;;;;16.09;69.01;100840.75;10568382;28;19930;-68
2023/07/03 02:00:38;;;;;;;;;;;;;;;16.22;68.27;100832.66;10586040;28;20375;-68
2023/07/03 02:05:40;;;;;;;;;;;;;;;16.05;68.38;100826.09;10585864;28;19923;-67
2023/07/03 02:10:43;;;;;;;;;;;;;;;16.24;68.69;100828.09;10567645;28;20002;-68
2023/07/03 02:15:45;;;;;;;;;;;;;;;16.11;69.90;100828.25;10567187;28;20370;-67
2023/07/03 02:20:51;;;;;;;;;;;;;;;16.18;69.82;100825.97;10585142;28;19930;-67
2023/07/03 02:25:53;;;;;;;;;;;;;;;16.22;70.14;100819.47;10567799;28;19997;-67
2023/07/03 02:30:55;;;;;;;;;;;;;;;16.19;70.22;100820.56;10566716;28;20366;-65
2023/07/03 02:36:02;;;;;;;;;;;;;;;15.88;71.21;100814.25;10584552;28;19977;-67
2023/07/03 02:41:04;;;;;;;;;;;;;;;16.23;71.17;100815.88;10566264;28;19923;-67
2023/07/03 02:46:07;;;;;;;;;;;;;;;16.39;70.37;100808.38;10584183;28;19923;-67
2023/07/03 02:51:09;;;;;;;;;;;;;;;16.45;69.87;100807.03;10566340;28;19924;-67
2023/07/03 02:56:11;;;;;;;;;;;;;;;16.23;71.22;100813.22;10589802;22;19923;-66
2023/07/03 03:01:14;;;;;;;;;;;;;;;16.05;72.87;100800.53;10565767;28;19931;-65
2023/07/03 03:06:17;;;;;;;;;;;;;;;15.83;74.35;100793.50;10583594;28;19928;-66
2023/07/03 03:11:19;;;;;;;;;;;;;;;15.75;74.74;100793.22;10583234;28;20350;-66
2023/07/03 03:16:21;;;;;;;;;;;;;;;15.90;74.93;100805.25;10565277;28;19924;-68
2023/07/03 03:21:23;;;;;;;;;;;;;;;15.90;76.24;100792.06;10564802;28;19971;-65
2023/07/03 03:26:26;;;;;;;;;;;;;;;16.22;74.53;100799.16;10582390;28;20339;-67
2023/07/03 03:31:29;;;;;;;;;;;;;;;16.33;74.63;100800.94;10582710;28;19931;-66
2023/07/03 03:36:33;;;;;;;;;;;;;;;16.13;75.37;100800.75;10582461;28;19924;-66
2023/07/03 03:41:35;;;;;;;;;;;;;;;15.88;77.36;100803.69;10582214;28;20327;-66
2023/07/03 03:46:37;;;;;;;;;;;;;;;15.83;79.02;100811.13;10582335;28;19923;-66
2023/07/03 03:51:40;;;;;;;;;;;;;;;16.02;77.88;100813.16;10582311;28;19930;-66
2023/07/03 03:56:42;;;;;;;;;;;;;;;15.69;80.87;100813.03;10581746;28;20342;-65
2023/07/03 04:01:45;;;;;;;;;;;;;;;15.53;80.89;100816.06;10564121;28;20018;-66
2023/07/03 04:06:47;;;;;;;;;;;;;;;15.53;80.60;100816.06;10563890;28;19923;-66
2023/07/03 04:11:49;;;;;;;;;;;;;;;15.46;82.47;100824.56;10581696;28;20030;-66
2023/07/03 04:16:51;;;;;;;;;;;;;;;15.82;79.57;100815.59;10581847;28;19928;-66
2023/07/03 04:21:54;;;;;;;;;;;;;;;15.74;80.16;100818.78;10563478;28;19930;-66
2023/07/03 04:26:58;;;;;;;;;;;;;;;15.40;82.14;100815.31;10581704;28;19930;-66
2023/07/03 04:32:01;;;;;;;;;;;;;;;15.59;82.09;100820.84;10581418;28;19924;-67
2023/07/03 04:37:03;;;;;;;;;;;;;;;15.46;85.55;100832.47;10583763;28;19928;-66
2023/07/03 04:42:07;;;;;;;;;;;;;;;15.50;83.05;100824.19;10589257;28;19930;-66
2023/07/03 04:47:09;;;;;;;;;;;;;;;15.70;81.51;100825.28;10589032;28;20282;-66
2023/07/03 04:52:16;;;;;;;;;;;;;;;15.35;85.47;100831.50;10589106;28;19924;-66
2023/07/03 04:57:18;;;;;;;;;;;;;;;15.42;86.28;100832.69;10554293;28;19950;-66
2023/07/03 05:02:21;;;;;;;;;;;;;;;15.66;86.79;100834.38;10588631;28;19924;-66
2023/07/03 05:07:23;;;;;;;;;;;;;;;16.07;82.50;100832.97;10570401;28;19981;-67
2023/07/03 05:12:25;;;;;;;;;;;;;;;15.54;88.46;100845.91;10588015;28;20007;-66
2023/07/03 05:17:27;;;;;;;;;;;;;;;15.85;85.75;100843.53;10587854;28;20374;-66
2023/07/03 05:22:30;;;;;;;;;;;;;;;15.87;84.19;100857.44;10587552;28;19927;-68
2023/07/03 05:27:32;;;;;;;;;;;;;;;15.68;86.04;100856.22;10587444;28;19924;-67
2023/07/03 05:32:35;;;;;;;;;;;;;;;15.56;88.02;100875.66;10569342;28;19930;-67
2023/07/03 05:37:37;;;;;;;;;;;;;;;15.71;87.38;100869.19;10587023;28;20044;-67
2023/07/03 05:42:39;;;;;;;;;;;;;;;15.75;86.74;100867.13;10568752;28;19924;-68
2023/07/03 05:47:42;;;;;;;;;;;;;;;16.09;84.61;100868.00;10586214;28;19964;-67
2023/07/03 05:52:44;;;;;;;;;;;;;;;16.06;83.57;100870.06;10586622;28;19955;-68
2023/07/03 05:57:46;;;;;;;;;;;;;;;16.02;85.01;100872.09;10586025;28;19923;-66
2023/07/03 06:02:51;;;;;;;;;;;;;;;16.31;83.19;100876.84;10585942;28;19924;-67
2023/07/03 06:07:54;;;;;;;;;;;;;;;16.14;85.88;100876.41;10585872;28;19927;-67
2023/07/03 06:12:56;;;;;;;;;;;;;;;16.71;83.64;100877.09;10585650;28;19924;-67
2023/07/03 06:17:59;;;;;;;;;;;;;;;16.30;83.47;100881.28;10585522;28;19930;-67
2023/07/03 06:23:01;;;;;;;;;;;;;;;16.67;82.56;100880.94;10585107;28;19923;-67
2023/07/03 06:28:04;;;;;;;;;;;;;;;16.78;79.85;100888.00;10585216;28;19923;-67
2023/07/03 06:33:06;;;;;;;;;;;;;;;16.85;81.94;100891.84;10584738;28;19924;-67
2023/07/03 06:38:08;;;;;;;;;;;;;;;16.66;81.37;100891.63;10584884;28;19977;-67
2023/07/03 06:43:11;;;;;;;;;;;;;;;16.91;82.22;100893.13;10566456;28;19930;-67
2023/07/03 06:48:13;;;;;;;;;;;;;;;16.29;85.30;100897.25;10583632;28;20019;-66
2023/07/03 06:53:15;;;;;;;;;;;;;;;16.83;81.79;100896.41;10584163;28;19924;-67
2023/07/03 06:58:17;;;;;;;;;;;;;;;17.15;81.13;100894.75;10583122;28;19924;-67
2023/07/03 07:03:20;;;;;;;;;;;;;;;17.08;79.47;100892.59;10565305;28;19923;-68
2023/07/03 07:08:22;;;;;;;;;;;;;;;17.26;79.12;100902.59;10548833;28;19969;-68
2023/07/03 07:13:24;;;;;;;;;;;;;;;17.61;77.41;100907.53;10583219;28;20006;-68
2023/07/03 07:18:27;;;;;;;;;;;;;;;17.23;80.22;100908.13;10583089;28;19924;-65
2023/07/03 07:23:29;;;;;;;;;;;;;;;17.42;77.67;100910.91;10582893;28;19924;-67
2023/07/03 07:28:31;;;;;;;;;;;;;;;17.30;78.17;100911.97;10582965;28;19931;-66
2023/07/03 07:33:33;;;;;;;;;;;;;;;17.00;77.81;100918.00;10564497;28;20297;-66
2023/07/03 07:38:36;;;;;;;;;;;;;;;16.88;80.93;100925.16;10564729;28;20006;-67
2023/07/03 07:43:38;;;;;;;;;;;;;;;17.03;82.69;100929.16;10582298;28;19924;-67
2023/07/03 07:48:40;;;;;;;;;;;;;;;16.67;84.36;100933.81;10582247;28;19930;-68
2023/07/03 07:53:42;;;;;;;;;;;;;;;16.83;82.83;100927.31;10582072;28;20259;-68
2023/07/03 07:58:45;;;;;;;;;;;;;;;17.14;83.42;100928.25;10581955;28;19930;-67
2023/07/03 08:03:47;;;;;;;;;;;;;;;17.08;81.96;100929.63;10582151;28;19924;-67
2023/07/03 08:08:50;;;;;;;;;;;;;;;17.51;79.63;100934.94;10563773;28;20015;-67
2023/07/03 08:13:54;;;;;;;;;;;;;;;17.21;80.45;100937.38;10571325;28;19977;-68
2023/07/03 08:18:56;;;;;;;;;;;;;;;17.80;77.67;100940.38;10590403;28;19924;-67
2023/07/03 08:23:58;;;;;;;;;;;;;;;18.34;74.72;100933.97;10571874;28;19924;-67
2023/07/03 08:29:01;;;;;;;;;;;;;;;18.96;72.24;100938.25;10572009;28;20010;-67
2023/07/03 08:34:03;;;;;;;;;;;;;;;19.39;70.18;100935.16;10589661;28;19928;-68
2023/07/03 08:39:05;;;;;;;;;;;;;;;19.85;68.92;100940.66;10589417;28;19961;-67
2023/07/03 08:44:07;;;;;;;;;;;;;;;19.21;68.28;100935.03;10571288;28;19924;-68
2023/07/03 08:49:10;;;;;;;;;;;;;;;18.60;68.51;100938.75;10570940;28;19924;-68
2023/07/03 08:54:14;;;;;;;;;;;;;;;18.53;71.21;100946.41;10570746;28;20363;-67
2023/07/03 08:59:17;;;;;;;;;;;;;;;18.84;69.24;100953.47;10570473;28;20006;-67
2023/07/03 09:04:19;;;;;;;;;;;;;;;18.67;69.14;100944.34;10588523;28;19924;-67
2023/07/03 09:09:29;;;;;;;;;;;;;;;19.25;66.34;100957.69;10588186;28;20374;-67
2023/07/03 09:14:34;;;;;;;;;;;;;;;18.71;67.95;100954.56;10570304;28;19924;-69
2023/07/03 09:19:37;;;;;;;;;;;;;;;18.20;68.72;100944.91;10569913;28;19931;-66
2023/07/03 09:24:40;;;;;;;;;;;;;;;18.66;68.07;100940.88;10551985;28;20002;-69
2023/07/03 09:29:43;;;;;;;;;;;;;;;18.10;67.90;100944.88;10569543;28;19928;-68
2023/07/03 09:35:05;;;;;;;;;;;;;;;20.47;64.19;100956.88;10569083;28;20392;-67
2023/07/03 09:40:10;;;;;;;;;;;;;;;22.54;59.31;100949.44;10587153;28;19993;-67
2023/07/03 09:45:22;;;;;;;;;;;;;;;22.99;56.71;100938.34;10552196;28;20386;-68
2023/07/03 09:50:27;;;;;;;;;;;;;;;22.88;55.15;100932.47;10568825;28;20015;-68
2023/07/03 09:55:29;;;;;;;;;;;;;;;22.02;55.45;100929.06;10568235;28;19930;-68
2023/07/03 10:00:32;;;;;;;;;;;;;;;20.55;58.92;100946.34;10568145;28;19930;-68
2023/07/03 10:05:34;;;;;;;;;;;;;;;21.42;58.31;100944.00;10586166;28;19928;-69
2023/07/03 10:10:39;;;;;;;;;;;;;;;21.36;57.40;100939.28;10585699;28;20007;-68
2023/07/03 10:15:47;;;;;;;;;;;;;;;22.51;54.72;100953.28;10585578;28;19924;-67
2023/07/03 10:20:50;;;;;;;;;;;;;;;23.03;51.20;100954.03;10585305;28;20340;-67
2023/07/03 10:25:54;;;;;;;;;;;;;;;21.49;52.37;100963.72;10567036;28;19973;-68
2023/07/03 10:30:58;;;;;;;;;;;;;;;23.28;48.59;100958.41;10567122;28;19934;-68
2023/07/03 10:36:02;;;;;;;;;;;;;;;22.51;49.94;100973.78;10566649;28;20285;-67
2023/07/03 10:41:12;;;;;;;;;;;;;;;21.47;52.57;100975.53;10584708;28;19959;-68
2023/07/03 10:46:17;;;;;;;;;;;;;;;21.83;52.13;100970.94;10566280;28;19987;-68
2023/07/03 10:51:19;;;;;;;;;;;;;;;23.89;48.39;100948.16;10566237;28;19976;-68
2023/07/03 10:56:31;;;;;;;;;;;;;;;24.45;44.81;100965.97;10583886;28;19963;-68
2023/07/03 11:01:39;;;;;;;;;;;;;;;23.63;47.20;100964.38;10583908;28;20002;-68
2023/07/03 11:07:00;;;;;;;;;;;;;;;23.07;49.40;100955.41;10565489;28;19977;-68
2023/07/03 11:12:02;;;;;;;;;;;;;;;21.85;50.59;100962.78;10583538;28;19924;-67
2023/07/03 11:17:11;;;;;;;;;;;;;;;20.47;52.17;100951.56;10583172;28;19930;-68
2023/07/03 11:22:15;;;;;;;;;;;;;;;21.27;52.36;100951.72;10565127;28;19924;-68
2023/07/03 11:27:32;;;;;;;;;;;;;;;22.35;50.97;100953.22;10565441;28;19930;-68
2023/07/03 11:32:37;;;;;;;;;;;;;;;21.24;53.49;100952.03;10582927;28;19924;-67
2023/07/03 11:37:45;;;;;;;;;;;;;;;20.52;54.07;100962.59;10582645;28;20013;-68
2023/07/03 11:42:53;;;;;;;;;;;;;;;19.86;55.95;100972.41;10582414;28;20282;-68
2023/07/03 11:47:59;;;;;;;;;;;;;;;20.23;56.08;100960.09;10564316;28;19923;-68
2023/07/03 11:53:01;;;;;;;;;;;;;;;23.06;51.70;100951.03;10582575;28;19938;-67
2023/07/03 11:58:03;;;;;;;;;;;;;;;26.11;46.64;100934.97;10581914;28;20370;-68
2023/07/03 12:03:10;;;;;;;;;;;;;;;21.77;51.84;100939.59;10564585;28;19967;-67
2023/07/03 12:08:19;;;;;;;;;;;;;;;21.09;52.55;100964.22;10581963;28;20284;-70
2023/07/03 12:13:27;;;;;;;;;;;;;;;21.26;51.31;100958.03;10563760;28;19924;-67
2023/07/03 12:18:29;;;;;;;;;;;;;;;24.01;45.58;100955.81;10581630;28;19923;-68
2023/07/03 12:23:32;;;;;;;;;;;;;;;23.60;44.63;100962.03;10563545;28;20358;-70
2023/07/03 12:28:35;;;;;;;;;;;;;;;23.63;45.90;100955.53;10581831;28;20037;-69
2023/07/03 12:33:46;;;;;;;;;;;;;;;23.05;45.66;100960.88;10563599;28;19924;-68
2023/07/03 12:38:48;;;;;;;;;;;;;;;21.87;47.68;100958.13;10581487;28;19947;-69
2023/07/03 12:43:51;;;;;;;;;;;;;;;20.83;49.50;100972.94;10563149;28;19924;-69
2023/07/03 12:49:08;;;;;;;;;;;;;;;23.37;47.17;100967.25;10565724;28;19924;-69
2023/07/03 12:54:11;;;;;;;;;;;;;;;21.41;46.82;100963.63;10581175;28;19940;-69
2023/07/03 12:59:20;;;;;;;;;;;;;;;20.52;49.75;100970.56;10550336;28;19931;-68
2023/07/03 13:04:26;;;;;;;;;;;;;;;20.64;50.84;100954.44;10588420;28;19923;-68
2023/07/03 13:09:29;;;;;;;;;;;;;;;20.63;51.67;100958.94;10570280;28;19930;-68
2023/07/03 13:14:31;;;;;;;;;;;;;;;20.32;52.35;100966.34;10570128;28;20014;-68
2023/07/03 13:19:35;;;;;;;;;;;;;;;20.78;52.05;100961.94;10587878;28;19930;-68
2023/07/03 13:24:50;;;;;;;;;;;;;;;20.57;52.68;100968.31;10569507;28;20435;-68
2023/07/03 13:29:57;;;;;;;;;;;;;;;19.43;53.58;100965.78;10569523;28;19923;-68
2023/07/03 13:35:01;;;;;;;;;;;;;;;19.86;52.75;100974.22;10569981;28;20002;-68
2023/07/03 13:40:03;;;;;;;;;;;;;;;19.94;52.01;100970.84;10587015;28;19924;-69
2023/07/03 13:45:07;;;;;;;;;;;;;;;19.99;52.42;100971.25;10586866;28;19931;-68
2023/07/03 13:50:10;;;;;;;;;;;;;;;20.25;52.95;100967.94;10568684;28;20398;-68
2023/07/03 13:55:12;;;;;;;;;;;;;;;19.91;52.62;100977.28;10586410;28;19924;-69
2023/07/03 14:00:15;;;;;;;;;;;;;;;19.70;52.73;100979.28;10551449;28;19927;-68
2023/07/03 14:05:18;;;;;;;;;;;;;;;20.15;51.67;100960.81;10585974;28;19967;-69
2023/07/03 14:10:20;;;;;;;;;;;;;;;20.75;51.41;100965.72;10567550;28;19955;-69
2023/07/03 14:15:25;;;;;;;;;;;;;;;20.60;51.42;100945.91;10567805;28;19930;-68
2023/07/03 14:20:27;;;;;;;;;;;;;;;20.26;51.98;100950.97;10585612;28;19943;-68
2023/07/03 14:25:30;;;;;;;;;;;;;;;20.82;51.66;100941.16;10567102;28;19930;-68
2023/07/03 14:30:32;;;;;;;;;;;;;;;19.77;52.82;100952.03;10566920;28;20277;-68
2023/07/03 14:35:34;;;;;;;;;;;;;;;19.90;52.17;100949.03;10566849;28;20355;-69
2023/07/03 14:40:37;;;;;;;;;;;;;;;19.90;51.73;100946.38;10584786;28;19923;-69
2023/07/03 14:45:39;;;;;;;;;;;;;;;20.25;50.48;100936.84;10566496;28;19924;-69
2023/07/03 14:50:41;;;;;;;;;;;;;;;19.97;50.51;100936.88;10584385;28;20376;-68
2023/07/03 14:55:51;;;;;;;;;;;;;;;20.64;50.14;100935.81;10583854;28;19924;-69
2023/07/03 15:00:53;;;;;;;;;;;;;;;20.72;50.08;100926.09;10583748;28;19924;-68
2023/07/03 15:05:56;;;;;;;;;;;;;;;20.27;50.10;100929.56;10583508;28;19928;-69
2023/07/03 15:10:58;;;;;;;;;;;;;;;20.20;51.32;100939.13;10589680;22;20382;-67
2023/07/03 15:16:00;;;;;;;;;;;;;;;20.03;49.89;100930.94;10583496;28;20014;-69
2023/07/03 15:21:03;;;;;;;;;;;;;;;20.42;50.73;100927.25;10582478;28;19924;-69
2023/07/03 15:26:05;;;;;;;;;;;;;;;19.86;50.52;100937.03;10564761;28;19937;-69
2023/07/03 15:31:08;;;;;;;;;;;;;;;19.79;52.93;100939.44;10582884;28;19938;-68
2023/07/03 15:36:10;;;;;;;;;;;;;;;19.54;52.31;100937.38;10582800;28;19924;-69
2023/07/03 15:41:12;;;;;;;;;;;;;;;19.53;52.60;100931.22;10582590;28;19924;-69
2023/07/03 15:46:17;;;;;;;;;;;;;;;19.65;53.05;100940.72;10581686;28;20153;-69
2023/07/03 15:51:19;;;;;;;;;;;;;;;19.64;52.85;100940.84;10582240;28;19924;-68
2023/07/03 15:56:21;;;;;;;;;;;;;;;19.54;53.92;100940.03;10564193;28;19924;-68
2023/07/03 16:01:25;;;;;;;;;;;;;;;19.16;54.20;100950.53;10564227;28;19923;-68
2023/07/03 16:06:28;;;;;;;;;;;;;;;19.60;53.34;100945.63;10563848;28;19924;-68
2023/07/03 16:11:34;;;;;;;;;;;;;;;19.56;53.17;100933.59;10563948;28;19924;-69
2023/07/03 16:16:37;;;;;;;;;;;;;;;20.30;52.49;100923.13;10581780;28;19924;-68
2023/07/03 16:21:40;;;;;;;;;;;;;;;20.11;52.11;100924.09;10581668;28;19931;-69
2023/07/03 16:26:43;;;;;;;;;;;;;;;19.83;53.24;100926.69;10563847;28;19924;-68
2023/07/03 16:31:45;;;;;;;;;;;;;;;19.82;54.71;100912.59;10583433;28;19924;-68
2023/07/03 16:36:48;;;;;;;;;;;;;;;20.21;53.96;100900.94;10589822;28;19924;-68
2023/07/03 16:41:50;;;;;;;;;;;;;;;20.21;54.73;100896.44;10589430;28;20281;-69
2023/07/03 16:46:52;;;;;;;;;;;;;;;19.88;54.77;100889.91;10589096;28;19930;-68
2023/07/03 16:51:54;;;;;;;;;;;;;;;20.30;55.42;100883.25;10589143;28;19924;-68
2023/07/03 16:56:57;;;;;;;;;;;;;;;19.95;56.33;100877.69;10588757;28;20396;-68
2023/07/03 17:01:59;;;;;;;;;;;;;;;19.89;57.34;100878.28;10553811;28;20280;-68
2023/07/03 17:07:01;;;;;;;;;;;;;;;19.78;58.08;100871.34;10588457;28;19924;-68
2023/07/03 17:12:04;;;;;;;;;;;;;;;20.15;57.07;100870.44;10570370;28;19930;-68
2023/07/03 17:17:06;;;;;;;;;;;;;;;20.26;56.46;100863.25;10570255;28;19927;-68
2023/07/03 17:22:08;;;;;;;;;;;;;;;20.07;54.85;100856.25;10587788;28;19955;-68
2023/07/03 17:27:10;;;;;;;;;;;;;;;19.81;55.22;100846.31;10587708;28;19930;-68
2023/07/03 17:32:13;;;;;;;;;;;;;;;19.92;55.98;100847.94;10587561;28;19923;-68
2023/07/03 17:37:17;;;;;;;;;;;;;;;19.90;55.35;100844.59;10587248;28;19924;-68
2023/07/03 17:42:19;;;;;;;;;;;;;;;19.53;55.82;100851.56;10568757;28;19924;-68
2023/07/03 17:47:21;;;;;;;;;;;;;;;19.95;55.49;100831.69;10586584;28;19931;-68
2023/07/03 17:52:24;;;;;;;;;;;;;;;19.72;56.38;100837.38;10568758;28;19931;-68
2023/07/03 17:57:26;;;;;;;;;;;;;;;19.81;55.63;100827.72;10586514;28;19931;-68
2023/07/03 18:02:28;;;;;;;;;;;;;;;19.66;55.31;100830.00;10586492;28;19923;-69
2023/07/03 18:07:31;;;;;;;;;;;;;;;19.76;55.95;100830.81;10585906;28;20428;-68
2023/07/03 18:12:35;;;;;;;;;;;;;;;19.76;55.81;100816.69;10585745;28;20339;-68
2023/07/03 18:17:37;;;;;;;;;;;;;;;19.57;56.27;100813.13;10567785;28;20014;-68
2023/07/03 18:22:39;;;;;;;;;;;;;;;19.35;55.45;100813.47;10585320;28;19923;-69
2023/07/03 18:27:43;;;;;;;;;;;;;;;19.52;55.08;100810.06;10585206;28;20306;-69
2023/07/03 18:32:45;;;;;;;;;;;;;;;19.48;56.03;100806.88;10567228;28;19930;-69
2023/07/03 18:37:47;;;;;;;;;;;;;;;19.24;55.68;100815.31;10584997;28;19967;-69
2023/07/03 18:42:50;;;;;;;;;;;;;;;19.53;55.40;100806.41;10549890;28;19924;-68
2023/07/03 18:47:52;;;;;;;;;;;;;;;19.31;55.80;100811.09;10584226;28;20388;-68
2023/07/03 18:52:54;;;;;;;;;;;;;;;19.33;55.02;100812.78;10584197;28;20413;-69
2023/07/03 18:57:58;;;;;;;;;;;;;;;19.16;54.98;100809.88;10583073;28;19923;-69
2023/07/03 19:03:00;;;;;;;;;;;;;;;19.22;55.25;100798.72;10584009;28;19927;-69
2023/07/03 19:08:03;;;;;;;;;;;;;;;19.23;55.60;100802.19;10583712;28;19976;-69
2023/07/03 19:13:05;;;;;;;;;;;;;;;19.15;55.13;100802.94;10548650;28;19924;-69
2023/07/03 19:18:08;;;;;;;;;;;;;;;19.11;54.56;100799.72;10583277;28;20393;-68
2023/07/03 19:23:10;;;;;;;;;;;;;;;19.04;55.08;100803.09;10583818;28;19923;-69
2023/07/03 19:28:12;;;;;;;;;;;;;;;18.98;54.93;100809.81;10565239;28;19924;-69
2023/07/03 19:33:15;;;;;;;;;;;;;;;19.05;54.18;100820.69;10582914;28;20011;-68
2023/07/03 19:38:17;;;;;;;;;;;;;;;18.91;54.80;100822.81;10564664;28;19928;-70
2023/07/03 19:43:19;;;;;;;;;;;;;;;18.77;54.54;100835.63;10582457;28;20014;-68
2023/07/03 19:48:22;;;;;;;;;;;;;;;18.89;54.09;100831.88;10582285;28;19990;-68
2023/07/03 19:53:24;;;;;;;;;;;;;;;18.85;54.97;100833.13;10582418;28;20033;-68
2023/07/03 19:58:27;;;;;;;;;;;;;;;18.90;54.81;100836.22;10582108;28;19928;-68
2023/07/03 20:03:29;;;;;;;;;;;;;;;18.85;55.03;100839.28;10581899;28;20034;-68
2023/07/03 20:08:31;;;;;;;;;;;;;;;18.77;55.62;100849.72;10569390;28;20010;-68
2023/07/03 20:13:34;;;;;;;;;;;;;;;18.65;54.98;100848.19;10590614;28;19930;-68
2023/07/03 20:18:37;;;;;;;;;;;;;;;18.50;55.88;100853.88;10590600;28;19927;-68
2023/07/03 20:23:41;;;;;;;;;;;;;;;18.73;55.49;100850.97;10590074;28;19937;-68
2023/07/03 20:28:43;;;;;;;;;;;;;;;18.60;56.36;100855.72;10590047;28;19924;-68
2023/07/03 20:33:45;;;;;;;;;;;;;;;18.69;56.55;100869.00;10589839;28;20038;-68
2023/07/03 20:38:48;;;;;;;;;;;;;;;18.63;56.10;100866.06;10589825;28;19923;-68
2023/07/03 20:43:50;;;;;;;;;;;;;;;18.48;57.41;100890.31;10589392;28;19924;-68
2023/07/03 20:48:55;;;;;;;;;;;;;;;17.64;64.18;100922.34;10589539;28;19946;-67
2023/07/03 20:59:00;;;;;;;;;;;;;;;16.91;75.43;100903.72;10588904;28;19930;-68
2023/07/03 21:04:03;;;;;;;;;;;;;;;16.71;78.02;100910.63;10588768;28;19977;-68
2023/07/03 21:09:06;;;;;;;;;;;;;;;16.84;76.50;100884.00;10570450;28;19935;-67
2023/07/03 21:14:08;;;;;;;;;;;;;;;17.06;74.88;100881.31;10588153;28;19924;-67
2023/07/03 21:19:11;;;;;;;;;;;;;;;17.31;73.45;100891.63;10586866;28;19924;-67
2023/07/03 21:24:13;;;;;;;;;;;;;;;17.13;72.17;100883.41;10570493;28;19967;-68
2023/07/03 21:29:16;;;;;;;;;;;;;;;17.30;72.01;100885.50;10587810;28;19934;-68
2023/07/03 21:34:18;;;;;;;;;;;;;;;17.14;72.21;100882.47;10552542;28;19930;-67
2023/07/03 21:39:20;;;;;;;;;;;;;;;17.39;71.22;100883.88;10569735;28;20358;-68
2023/07/03 21:44:22;;;;;;;;;;;;;;;17.26;68.64;100877.00;10586929;28;19923;-68
2023/07/03 21:49:25;;;;;;;;;;;;;;;17.19;67.64;100889.03;10586742;28;20256;-67
2023/07/03 21:54:27;;;;;;;;;;;;;;;17.16;66.34;100899.03;10586751;28;19923;-70
2023/07/03 21:59:29;;;;;;;;;;;;;;;17.21;66.39;100929.44;10586528;28;19924;-68
2023/07/03 22:04:31;;;;;;;;;;;;;;;16.98;68.81;100955.16;10586601;28;19930;-68
2023/07/03 22:09:34;;;;;;;;;;;;;;;16.76;72.12;100968.41;10586197;28;19924;-68
2023/07/03 22:14:39;;;;;;;;;;;;;;;16.12;76.31;100991.03;10568091;28;19924;-69
2023/07/03 22:19:43;;;;;;;;;;;;;;;15.70;81.92;100985.44;10585730;28;19938;-68
2023/07/03 22:24:45;;;;;;;;;;;;;;;15.54;82.82;100991.88;10567539;28;19924;-68
2023/07/03 22:29:48;;;;;;;;;;;;;;;15.74;84.34;100978.97;10585077;28;20015;-68
2023/07/03 22:34:51;;;;;;;;;;;;;;;15.87;81.77;100977.13;10585007;28;19931;-68
2023/07/03 22:39:53;;;;;;;;;;;;;;;15.98;78.99;100985.03;10584941;28;19930;-68
2023/07/03 22:44:55;;;;;;;;;;;;;;;14.97;81.14;100971.50;10584513;28;20449;-69
2023/07/03 22:50:00;;;;;;;;;;;;;;;14.82;83.10;100957.66;10584425;28;19946;-67
2023/07/03 22:55:04;;;;;;;;;;;;;;;15.21;86.81;100966.22;10584195;28;20287;-68
2023/07/03 23:00:10;;;;;;;;;;;;;;;14.27;100.00;100965.03;10549136;28;19990;-66
2023/07/03 23:05:13;;;;;;;;;;;;;;;14.39;100.00;100965.97;10583925;28;20018;-66
2023/07/03 23:10:15;;;;;;;;;;;;;;;14.83;100.00;100961.97;10583357;28;20355;-66
2023/07/03 23:15:17;;;;;;;;;;;;;;;14.59;100.00;100978.59;10583715;28;19931;-65
2023/07/03 23:20:20;;;;;;;;;;;;;;;14.35;100.00;100969.78;10583209;28;20255;-65
2023/07/03 23:25:23;;;;;;;;;;;;;;;14.71;100.00;100986.56;10583198;28;19930;-66
2023/07/03 23:30:25;;;;;;;;;;;;;;;14.55;100.00;101016.63;10565156;28;19923;-66
2023/07/03 23:35:30;;;;;;;;;;;;;;;14.35;100.00;101007.47;10582690;28;19924;-66
2023/07/03 23:40:32;;;;;;;;;;;;;;;14.34;100.00;101002.31;10582240;28;19984;-66
2023/07/03 23:45:34;;;;;;;;;;;;;;;13.99;100.00;101003.81;10582393;28;19931;-65
2023/07/03 23:50:38;;;;;;;;;;;;;;;14.16;100.00;100999.19;10582320;28;19950;-66
2023/07/03 23:55:40;;;;;;;;;;;;;;;14.50;100.00;101008.19;10582337;28;19930;-67
